sensor_id;sensor_type;location;lat;lon;timestamp;P1;durP1;ratioP1;P2;durP2;ratioP2
28934;SDS011;16044;52.726;-2.108;2023-11-21T00:00:31;25.98;;;13.05;;
28934;SDS011;16044;52.726;-2.108;2023-11-21T00:03:02;21.00;;;13.07;;
28934;SDS011;16044;52.726;-2.108;2023-11-21T00:05:36;22.73;;;14.15;;
28934;SDS011;16044;52.726;-2.108;2023-11-21T00:08:08;22.23;;;13.88;;
28934;SDS011;16044;52.726;-2.108;2023-11-21T00:10:38;20.15;;;13.70;;
28934;SDS011;16044;52.726;-2.108;2023-11-21T00:13:09;20.25;;;14.18;;
28934;SDS011;16044;52.726;-2.108;2023-11-21T00:15:39;20.92;;;13.73;;
28934;SDS011;16044;52.726;-2.108;2023-11-21T00:18:10;24.25;;;14.98;;
28934;SDS011;16044;52.726;-2.108;2023-11-21T00:20:43;21.30;;;14.77;;
28934;SDS011;16044;52.726;-2.108;2023-11-21T00:23:13;21.65;;;14.73;;
28934;SDS011;16044;52.726;-2.108;2023-11-21T00:25:44;25.85;;;14.55;;
28934;SDS011;16044;52.726;-2.108;2023-11-21T00:28:15;20.70;;;13.65;;
28934;SDS011;16044;52.726;-2.108;2023-11-21T00:30:45;17.90;;;13.05;;
28934;SDS011;16044;52.726;-2.108;2023-11-21T00:33:16;17.80;;;13.75;;
28934;SDS011;16044;52.726;-2.108;2023-11-21T00:35:49;15.57;;;13.15;;
28934;SDS011;16044;52.726;-2.108;2023-11-21T00:38:19;19.67;;;13.30;;
28934;SDS011;16044;52.726;-2.108;2023-11-21T00:40:49;19.40;;;14.18;;
28934;SDS011;16044;52.726;-2.108;2023-11-21T00:43:23;21.60;;;14.77;;
28934;SDS011;16044;52.726;-2.108;2023-11-21T00:45:53;25.30;;;14.80;;
28934;SDS011;16044;52.726;-2.108;2023-11-21T00:48:23;22.85;;;14.50;;
28934;SDS011;16044;52.726;-2.108;2023-11-21T00:50:56;24.80;;;14.23;;
28934;SDS011;16044;52.726;-2.108;2023-11-21T00:53:27;18.65;;;13.63;;
28934;SDS011;16044;52.726;-2.108;2023-11-21T00:55:57;18.33;;;12.98;;
28934;SDS011;16044;52.726;-2.108;2023-11-21T00:58:28;15.57;;;12.57;;
28934;SDS011;16044;52.726;-2.108;2023-11-21T01:00:59;16.10;;;13.18;;
28934;SDS011;16044;52.726;-2.108;2023-11-21T01:03:30;16.80;;;13.98;;
28934;SDS011;16044;52.726;-2.108;2023-11-21T01:06:03;15.15;;;12.20;;
28934;SDS011;16044;52.726;-2.108;2023-11-21T01:08:34;14.45;;;11.85;;
28934;SDS011;16044;52.726;-2.108;2023-11-21T01:11:05;13.95;;;11.40;;
28934;SDS011;16044;52.726;-2.108;2023-11-21T01:13:39;15.18;;;11.82;;
28934;SDS011;16044;52.726;-2.108;2023-11-21T01:16:09;18.38;;;12.52;;
28934;SDS011;16044;52.726;-2.108;2023-11-21T01:18:40;16.88;;;11.27;;
28934;SDS011;16044;52.726;-2.108;2023-11-21T01:21:13;16.42;;;11.35;;
28934;SDS011;16044;52.726;-2.108;2023-11-21T01:23:43;17.98;;;11.02;;
28934;SDS011;16044;52.726;-2.108;2023-11-21T01:26:14;18.00;;;10.55;;
28934;SDS011;16044;52.726;-2.108;2023-11-21T01:28:44;13.70;;;8.10;;
28934;SDS011;16044;52.726;-2.108;2023-11-21T01:31:15;13.75;;;6.90;;
28934;SDS011;16044;52.726;-2.108;2023-11-21T01:33:47;7.18;;;4.50;;
28934;SDS011;16044;52.726;-2.108;2023-11-21T01:36:20;10.05;;;4.78;;
28934;SDS011;16044;52.726;-2.108;2023-11-21T01:38:51;9.45;;;3.83;;
28934;SDS011;16044;52.726;-2.108;2023-11-21T01:41:21;5.03;;;3.53;;
28934;SDS011;16044;52.726;-2.108;2023-11-21T01:43:53;7.10;;;3.33;;
28934;SDS011;16044;52.726;-2.108;2023-11-21T01:46:24;7.45;;;3.13;;
28934;SDS011;16044;52.726;-2.108;2023-11-21T01:48:56;6.47;;;3.67;;
28934;SDS011;16044;52.726;-2.108;2023-11-21T01:51:29;6.38;;;3.28;;
28934;SDS011;16044;52.726;-2.108;2023-11-21T01:53:59;4.93;;;2.80;;
28934;SDS011;16044;52.726;-2.108;2023-11-21T01:56:42;5.80;;;2.92;;
28934;SDS011;16044;52.726;-2.108;2023-11-21T01:59:21;3.20;;;2.08;;
28934;SDS011;16044;52.726;-2.108;2023-11-21T02:01:51;3.83;;;2.00;;
28934;SDS011;16044;52.726;-2.108;2023-11-21T02:04:23;5.78;;;2.10;;
28934;SDS011;16044;52.726;-2.108;2023-11-21T02:06:56;3.88;;;1.48;;
28934;SDS011;16044;52.726;-2.108;2023-11-21T02:09:27;5.35;;;1.67;;
28934;SDS011;16044;52.726;-2.108;2023-11-21T02:11:58;6.57;;;1.60;;
28934;SDS011;16044;52.726;-2.108;2023-11-21T02:14:29;4.90;;;1.55;;
28934;SDS011;16044;52.726;-2.108;2023-11-21T02:17:00;2.90;;;1.20;;
28934;SDS011;16044;52.726;-2.108;2023-11-21T02:19:30;3.72;;;1.27;;
28934;SDS011;16044;52.726;-2.108;2023-11-21T02:22:03;2.45;;;0.90;;
28934;SDS011;16044;52.726;-2.108;2023-11-21T02:24:37;3.67;;;1.20;;
28934;SDS011;16044;52.726;-2.108;2023-11-21T02:27:07;2.15;;;0.85;;
28934;SDS011;16044;52.726;-2.108;2023-11-21T02:29:37;1.98;;;0.80;;
28934;SDS011;16044;52.726;-2.108;2023-11-21T02:32:08;4.45;;;0.77;;
28934;SDS011;16044;52.726;-2.108;2023-11-21T02:34:38;2.65;;;0.65;;
28934;SDS011;16044;52.726;-2.108;2023-11-21T02:37:10;2.25;;;0.50;;
28934;SDS011;16044;52.726;-2.108;2023-11-21T02:39:43;3.08;;;0.52;;
28934;SDS011;16044;52.726;-2.108;2023-11-21T02:42:13;2.53;;;0.40;;
28934;SDS011;16044;52.726;-2.108;2023-11-21T02:44:44;3.83;;;0.70;;
28934;SDS011;16044;52.726;-2.108;2023-11-21T02:47:14;2.47;;;0.47;;
28934;SDS011;16044;52.726;-2.108;2023-11-21T02:49:44;4.30;;;0.88;;
28934;SDS011;16044;52.726;-2.108;2023-11-21T02:52:15;4.65;;;1.00;;
28934;SDS011;16044;52.726;-2.108;2023-11-21T02:54:48;4.03;;;0.90;;
28934;SDS011;16044;52.726;-2.108;2023-11-21T02:57:19;2.83;;;1.02;;
28934;SDS011;16044;52.726;-2.108;2023-11-21T02:59:49;3.95;;;0.75;;
28934;SDS011;16044;52.726;-2.108;2023-11-21T03:02:20;4.43;;;0.80;;
28934;SDS011;16044;52.726;-2.108;2023-11-21T03:04:51;3.60;;;1.17;;
28934;SDS011;16044;52.726;-2.108;2023-11-21T03:07:21;5.57;;;1.55;;
28934;SDS011;16044;52.726;-2.108;2023-11-21T03:09:55;5.13;;;0.80;;
28934;SDS011;16044;52.726;-2.108;2023-11-21T03:12:25;6.38;;;1.08;;
28934;SDS011;16044;52.726;-2.108;2023-11-21T03:14:55;4.18;;;1.00;;
28934;SDS011;16044;52.726;-2.108;2023-11-21T03:17:26;5.13;;;0.93;;
28934;SDS011;16044;52.726;-2.108;2023-11-21T03:19:56;3.75;;;0.57;;
28934;SDS011;16044;52.726;-2.108;2023-11-21T03:22:26;4.57;;;0.80;;
28934;SDS011;16044;52.726;-2.108;2023-11-21T03:24:59;3.47;;;0.70;;
28934;SDS011;16044;52.726;-2.108;2023-11-21T03:27:31;4.50;;;0.60;;
28934;SDS011;16044;52.726;-2.108;2023-11-21T03:30:01;6.65;;;1.27;;
28934;SDS011;16044;52.726;-2.108;2023-11-21T03:32:33;3.88;;;0.60;;
28934;SDS011;16044;52.726;-2.108;2023-11-21T03:35:04;2.17;;;0.32;;
28934;SDS011;16044;52.726;-2.108;2023-11-21T03:37:35;3.70;;;0.60;;
28934;SDS011;16044;52.726;-2.108;2023-11-21T03:40:11;2.97;;;0.55;;
28934;SDS011;16044;52.726;-2.108;2023-11-21T03:42:42;2.67;;;0.40;;
28934;SDS011;16044;52.726;-2.108;2023-11-21T03:45:12;14.25;;;0.50;;
28934;SDS011;16044;52.726;-2.108;2023-11-21T03:47:42;1.30;;;0.25;;
28934;SDS011;16044;52.726;-2.108;2023-11-21T03:50:13;3.10;;;0.40;;
28934;SDS011;16044;52.726;-2.108;2023-11-21T03:52:44;2.22;;;0.50;;
28934;SDS011;16044;52.726;-2.108;2023-11-21T03:55:17;4.28;;;0.70;;
28934;SDS011;16044;52.726;-2.108;2023-11-21T03:57:47;4.03;;;0.80;;
28934;SDS011;16044;52.726;-2.108;2023-11-21T04:00:18;4.20;;;0.60;;
28934;SDS011;16044;52.726;-2.108;2023-11-21T04:02:49;4.68;;;0.75;;
28934;SDS011;16044;52.726;-2.108;2023-11-21T04:05:20;2.88;;;0.60;;
28934;SDS011;16044;52.726;-2.108;2023-11-21T04:07:51;2.60;;;0.60;;
28934;SDS011;16044;52.726;-2.108;2023-11-21T04:10:24;1.05;;;0.60;;
28934;SDS011;16044;52.726;-2.108;2023-11-21T04:12:55;2.35;;;0.52;;
28934;SDS011;16044;52.726;-2.108;2023-11-21T04:15:27;2.20;;;0.55;;
28934;SDS011;16044;52.726;-2.108;2023-11-21T04:17:57;2.25;;;0.70;;
28934;SDS011;16044;52.726;-2.108;2023-11-21T04:20:27;4.10;;;0.73;;
28934;SDS011;16044;52.726;-2.108;2023-11-21T04:22:58;2.42;;;0.43;;
28934;SDS011;16044;52.726;-2.108;2023-11-21T04:25:31;3.17;;;0.60;;
28934;SDS011;16044;52.726;-2.108;2023-11-21T04:28:01;3.78;;;0.70;;
28934;SDS011;16044;52.726;-2.108;2023-11-21T04:30:31;4.55;;;0.77;;
28934;SDS011;16044;52.726;-2.108;2023-11-21T04:33:02;4.15;;;0.98;;
28934;SDS011;16044;52.726;-2.108;2023-11-21T04:35:32;2.40;;;0.60;;
28934;SDS011;16044;52.726;-2.108;2023-11-21T04:38:03;3.33;;;1.00;;
28934;SDS011;16044;52.726;-2.108;2023-11-21T04:40:35;2.35;;;0.70;;
28934;SDS011;16044;52.726;-2.108;2023-11-21T04:43:06;2.90;;;0.60;;
28934;SDS011;16044;52.726;-2.108;2023-11-21T04:45:37;3.25;;;0.88;;
28934;SDS011;16044;52.726;-2.108;2023-11-21T04:48:08;2.65;;;0.47;;
28934;SDS011;16044;52.726;-2.108;2023-11-21T04:50:38;2.80;;;0.63;;
28934;SDS011;16044;52.726;-2.108;2023-11-21T04:53:08;4.20;;;0.60;;
28934;SDS011;16044;52.726;-2.108;2023-11-21T04:55:43;6.85;;;1.38;;
28934;SDS011;16044;52.726;-2.108;2023-11-21T04:58:15;3.45;;;0.65;;
28934;SDS011;16044;52.726;-2.108;2023-11-21T05:00:47;4.60;;;0.88;;
28934;SDS011;16044;52.726;-2.108;2023-11-21T05:03:16;4.90;;;0.75;;
28934;SDS011;16044;52.726;-2.108;2023-11-21T05:05:47;4.60;;;0.90;;
28934;SDS011;16044;52.726;-2.108;2023-11-21T05:08:17;3.05;;;0.73;;
28934;SDS011;16044;52.726;-2.108;2023-11-21T05:10:51;2.58;;;0.60;;
28934;SDS011;16044;52.726;-2.108;2023-11-21T05:13:22;5.28;;;0.65;;
28934;SDS011;16044;52.726;-2.108;2023-11-21T05:15:54;3.05;;;0.60;;
28934;SDS011;16044;52.726;-2.108;2023-11-21T05:18:26;4.60;;;0.50;;
28934;SDS011;16044;52.726;-2.108;2023-11-21T05:20:56;2.40;;;0.40;;
28934;SDS011;16044;52.726;-2.108;2023-11-21T05:23:27;5.53;;;0.60;;
28934;SDS011;16044;52.726;-2.108;2023-11-21T05:26:00;5.80;;;0.52;;
28934;SDS011;16044;52.726;-2.108;2023-11-21T05:28:30;4.03;;;0.50;;
28934;SDS011;16044;52.726;-2.108;2023-11-21T05:31:01;1.17;;;0.43;;
28934;SDS011;16044;52.726;-2.108;2023-11-21T05:33:41;2.75;;;0.50;;
28934;SDS011;16044;52.726;-2.108;2023-11-21T05:36:12;2.33;;;0.50;;
28934;SDS011;16044;52.726;-2.108;2023-11-21T05:38:42;3.55;;;0.50;;
28934;SDS011;16044;52.726;-2.108;2023-11-21T05:41:15;5.32;;;1.52;;
28934;SDS011;16044;52.726;-2.108;2023-11-21T05:43:45;8.40;;;2.40;;
28934;SDS011;16044;52.726;-2.108;2023-11-21T05:46:16;6.47;;;1.27;;
28934;SDS011;16044;52.726;-2.108;2023-11-21T05:48:46;2.00;;;0.70;;
28934;SDS011;16044;52.726;-2.108;2023-11-21T05:51:17;4.82;;;1.40;;
28934;SDS011;16044;52.726;-2.108;2023-11-21T05:53:47;8.48;;;1.92;;
28934;SDS011;16044;52.726;-2.108;2023-11-21T05:56:20;5.20;;;1.30;;
28934;SDS011;16044;52.726;-2.108;2023-11-21T05:58:50;4.50;;;1.00;;
28934;SDS011;16044;52.726;-2.108;2023-11-21T06:01:21;3.00;;;0.90;;
28934;SDS011;16044;52.726;-2.108;2023-11-21T06:03:54;4.38;;;1.45;;
28934;SDS011;16044;52.726;-2.108;2023-11-21T06:06:25;1.05;;;0.30;;
28934;SDS011;16044;52.726;-2.108;2023-11-21T06:08:56;5.43;;;1.30;;
28934;SDS011;16044;52.726;-2.108;2023-11-21T06:11:29;10.57;;;2.40;;
28934;SDS011;16044;52.726;-2.108;2023-11-21T06:13:59;5.22;;;1.40;;
28934;SDS011;16044;52.726;-2.108;2023-11-21T06:16:30;8.07;;;2.13;;
28934;SDS011;16044;52.726;-2.108;2023-11-21T06:19:00;3.03;;;1.00;;
28934;SDS011;16044;52.726;-2.108;2023-11-21T06:21:32;2.58;;;0.82;;
28934;SDS011;16044;52.726;-2.108;2023-11-21T06:24:03;3.30;;;0.70;;
28934;SDS011;16044;52.726;-2.108;2023-11-21T06:26:36;3.25;;;0.63;;
28934;SDS011;16044;52.726;-2.108;2023-11-21T06:29:07;5.80;;;1.20;;
28934;SDS011;16044;52.726;-2.108;2023-11-21T06:31:38;3.35;;;0.77;;
28934;SDS011;16044;52.726;-2.108;2023-11-21T06:34:08;3.80;;;0.70;;
28934;SDS011;16044;52.726;-2.108;2023-11-21T06:36:39;6.97;;;1.02;;
28934;SDS011;16044;52.726;-2.108;2023-11-21T06:39:09;7.97;;;1.92;;
28934;SDS011;16044;52.726;-2.108;2023-11-21T06:41:44;5.95;;;1.85;;
28934;SDS011;16044;52.726;-2.108;2023-11-21T06:44:15;3.25;;;1.30;;
28934;SDS011;16044;52.726;-2.108;2023-11-21T06:46:46;4.05;;;1.15;;
28934;SDS011;16044;52.726;-2.108;2023-11-21T06:49:17;2.95;;;0.35;;
28934;SDS011;16044;52.726;-2.108;2023-11-21T06:51:47;4.90;;;0.70;;
28934;SDS011;16044;52.726;-2.108;2023-11-21T06:54:17;6.15;;;0.55;;
28934;SDS011;16044;52.726;-2.108;2023-11-21T06:56:51;3.00;;;0.40;;
28934;SDS011;16044;52.726;-2.108;2023-11-21T07:01:53;6.57;;;1.38;;
28934;SDS011;16044;52.726;-2.108;2023-11-21T07:04:24;6.95;;;1.30;;
28934;SDS011;16044;52.726;-2.108;2023-11-21T07:06:55;6.38;;;1.85;;
28934;SDS011;16044;52.726;-2.108;2023-11-21T07:09:25;6.80;;;2.00;;
28934;SDS011;16044;52.726;-2.108;2023-11-21T07:11:58;6.45;;;1.38;;
28934;SDS011;16044;52.726;-2.108;2023-11-21T07:14:30;9.02;;;1.90;;
28934;SDS011;16044;52.726;-2.108;2023-11-21T07:17:00;6.72;;;2.17;;
28934;SDS011;16044;52.726;-2.108;2023-11-21T07:19:31;5.03;;;1.40;;
28934;SDS011;16044;52.726;-2.108;2023-11-21T07:22:02;4.05;;;1.20;;
28934;SDS011;16044;52.726;-2.108;2023-11-21T07:24:33;5.80;;;1.00;;
28934;SDS011;16044;52.726;-2.108;2023-11-21T07:27:06;2.10;;;0.73;;
28934;SDS011;16044;52.726;-2.108;2023-11-21T07:29:36;3.72;;;1.00;;
28934;SDS011;16044;52.726;-2.108;2023-11-21T07:32:07;2.85;;;0.80;;
28934;SDS011;16044;52.726;-2.108;2023-11-21T07:34:38;7.60;;;1.35;;
28934;SDS011;16044;52.726;-2.108;2023-11-21T07:37:11;5.18;;;1.33;;
28934;SDS011;16044;52.726;-2.108;2023-11-21T07:39:42;6.20;;;0.90;;
28934;SDS011;16044;52.726;-2.108;2023-11-21T07:42:16;4.55;;;1.23;;
28934;SDS011;16044;52.726;-2.108;2023-11-21T07:44:46;6.47;;;1.08;;
28934;SDS011;16044;52.726;-2.108;2023-11-21T07:47:17;4.25;;;0.70;;
28934;SDS011;16044;52.726;-2.108;2023-11-21T07:49:47;4.65;;;1.10;;
28934;SDS011;16044;52.726;-2.108;2023-11-21T07:52:18;5.55;;;1.27;;
28934;SDS011;16044;52.726;-2.108;2023-11-21T07:54:48;9.40;;;1.40;;
28934;SDS011;16044;52.726;-2.108;2023-11-21T07:57:21;5.38;;;1.10;;
28934;SDS011;16044;52.726;-2.108;2023-11-21T08:03:32;6.45;;;1.70;;
28934;SDS011;16044;52.726;-2.108;2023-11-21T08:06:03;6.00;;;1.60;;
28934;SDS011;16044;52.726;-2.108;2023-11-21T08:08:35;4.50;;;1.63;;
28934;SDS011;16044;52.726;-2.108;2023-11-21T08:11:05;6.80;;;1.85;;
28934;SDS011;16044;52.726;-2.108;2023-11-21T08:13:39;4.30;;;1.15;;
28934;SDS011;16044;52.726;-2.108;2023-11-21T08:16:09;4.05;;;1.00;;
28934;SDS011;16044;52.726;-2.108;2023-11-21T08:18:40;4.10;;;1.33;;
28934;SDS011;16044;52.726;-2.108;2023-11-21T08:21:12;4.28;;;1.00;;
28934;SDS011;16044;52.726;-2.108;2023-11-21T08:23:42;3.85;;;0.90;;
28934;SDS011;16044;52.726;-2.108;2023-11-21T08:26:15;5.53;;;0.70;;
28934;SDS011;16044;52.726;-2.108;2023-11-21T08:28:48;3.80;;;0.90;;
28934;SDS011;16044;52.726;-2.108;2023-11-21T08:31:23;5.25;;;1.35;;
28934;SDS011;16044;52.726;-2.108;2023-11-21T08:33:55;5.55;;;1.25;;
28934;SDS011;16044;52.726;-2.108;2023-11-21T08:36:27;5.32;;;1.80;;
28934;SDS011;16044;52.726;-2.108;2023-11-21T08:38:58;8.75;;;1.90;;
28934;SDS011;16044;52.726;-2.108;2023-11-21T08:41:28;6.25;;;1.63;;
28934;SDS011;16044;52.726;-2.108;2023-11-21T08:44:01;7.30;;;2.20;;
28934;SDS011;16044;52.726;-2.108;2023-11-21T08:46:33;3.33;;;0.93;;
28934;SDS011;16044;52.726;-2.108;2023-11-21T08:49:04;5.20;;;0.82;;
28934;SDS011;16044;52.726;-2.108;2023-11-21T08:51:35;5.80;;;1.75;;
28934;SDS011;16044;52.726;-2.108;2023-11-21T08:54:05;6.68;;;1.45;;
28934;SDS011;16044;52.726;-2.108;2023-11-21T08:56:36;7.30;;;1.83;;
28934;SDS011;16044;52.726;-2.108;2023-11-21T08:59:09;10.13;;;1.83;;
28934;SDS011;16044;52.726;-2.108;2023-11-21T09:01:41;5.38;;;1.75;;
28934;SDS011;16044;52.726;-2.108;2023-11-21T09:04:12;6.55;;;2.00;;
28934;SDS011;16044;52.726;-2.108;2023-11-21T09:06:42;6.68;;;1.90;;
28934;SDS011;16044;52.726;-2.108;2023-11-21T09:09:13;7.80;;;1.60;;
28934;SDS011;16044;52.726;-2.108;2023-11-21T09:11:43;7.47;;;1.65;;
28934;SDS011;16044;52.726;-2.108;2023-11-21T09:14:18;7.18;;;1.50;;
28934;SDS011;16044;52.726;-2.108;2023-11-21T09:16:48;6.65;;;1.58;;
28934;SDS011;16044;52.726;-2.108;2023-11-21T09:19:19;6.40;;;1.48;;
28934;SDS011;16044;52.726;-2.108;2023-11-21T09:21:49;8.38;;;2.25;;
28934;SDS011;16044;52.726;-2.108;2023-11-21T09:24:21;7.20;;;1.85;;
28934;SDS011;16044;52.726;-2.108;2023-11-21T09:26:52;8.27;;;2.38;;
28934;SDS011;16044;52.726;-2.108;2023-11-21T09:29:25;11.30;;;2.53;;
28934;SDS011;16044;52.726;-2.108;2023-11-21T09:31:55;9.90;;;2.28;;
28934;SDS011;16044;52.726;-2.108;2023-11-21T09:34:26;12.77;;;2.45;;
28934;SDS011;16044;52.726;-2.108;2023-11-21T09:36:57;5.78;;;1.85;;
28934;SDS011;16044;52.726;-2.108;2023-11-21T09:39:28;5.47;;;1.45;;
28934;SDS011;16044;52.726;-2.108;2023-11-21T09:42:08;6.43;;;1.40;;
28934;SDS011;16044;52.726;-2.108;2023-11-21T09:44:48;7.60;;;1.48;;
28934;SDS011;16044;52.726;-2.108;2023-11-21T09:47:28;7.90;;;1.73;;
28934;SDS011;16044;52.726;-2.108;2023-11-21T09:49:59;5.65;;;1.60;;
28934;SDS011;16044;52.726;-2.108;2023-11-21T09:52:32;9.73;;;1.50;;
28934;SDS011;16044;52.726;-2.108;2023-11-21T09:55:18;7.40;;;1.30;;
28934;SDS011;16044;52.726;-2.108;2023-11-21T09:57:50;8.93;;;1.67;;
28934;SDS011;16044;52.726;-2.108;2023-11-21T10:00:24;6.18;;;1.33;;
28934;SDS011;16044;52.726;-2.108;2023-11-21T10:02:55;5.97;;;1.25;;
28934;SDS011;16044;52.726;-2.108;2023-11-21T10:05:28;11.25;;;1.30;;
28934;SDS011;16044;52.726;-2.108;2023-11-21T10:08:01;7.00;;;1.20;;
28934;SDS011;16044;52.726;-2.108;2023-11-21T10:10:33;8.13;;;1.23;;
28934;SDS011;16044;52.726;-2.108;2023-11-21T10:15:47;7.93;;;1.52;;
28934;SDS011;16044;52.726;-2.108;2023-11-21T10:18:20;5.55;;;1.23;;
28934;SDS011;16044;52.726;-2.108;2023-11-21T10:20:53;7.68;;;1.60;;
28934;SDS011;16044;52.726;-2.108;2023-11-21T10:23:26;7.25;;;1.20;;
28934;SDS011;16044;52.726;-2.108;2023-11-21T10:25:57;3.90;;;1.10;;
28934;SDS011;16044;52.726;-2.108;2023-11-21T10:28:40;7.18;;;1.40;;
28934;SDS011;16044;52.726;-2.108;2023-11-21T10:31:13;6.35;;;1.15;;
28934;SDS011;16044;52.726;-2.108;2023-11-21T10:33:43;6.20;;;1.40;;
28934;SDS011;16044;52.726;-2.108;2023-11-21T10:36:14;8.00;;;1.60;;
28934;SDS011;16044;52.726;-2.108;2023-11-21T10:38:56;5.22;;;1.60;;
28934;SDS011;16044;52.726;-2.108;2023-11-21T10:41:26;4.50;;;1.40;;
28934;SDS011;16044;52.726;-2.108;2023-11-21T10:43:57;6.80;;;1.55;;
28934;SDS011;16044;52.726;-2.108;2023-11-21T10:46:30;7.18;;;1.42;;
28934;SDS011;16044;52.726;-2.108;2023-11-21T10:49:00;7.13;;;1.40;;
28934;SDS011;16044;52.726;-2.108;2023-11-21T10:51:31;6.70;;;1.58;;
28934;SDS011;16044;52.726;-2.108;2023-11-21T10:54:01;6.63;;;1.58;;
28934;SDS011;16044;52.726;-2.108;2023-11-21T10:56:32;5.28;;;1.42;;
28934;SDS011;16044;52.726;-2.108;2023-11-21T10:59:07;4.10;;;1.20;;
28934;SDS011;16044;52.726;-2.108;2023-11-21T11:01:44;6.33;;;1.23;;
28934;SDS011;16044;52.726;-2.108;2023-11-21T11:04:17;5.82;;;1.45;;
28934;SDS011;16044;52.726;-2.108;2023-11-21T11:06:50;7.15;;;1.70;;
28934;SDS011;16044;52.726;-2.108;2023-11-21T11:09:32;5.60;;;1.27;;
28934;SDS011;16044;52.726;-2.108;2023-11-21T11:12:03;4.78;;;1.48;;
28934;SDS011;16044;52.726;-2.108;2023-11-21T11:14:34;6.03;;;1.60;;
28934;SDS011;16044;52.726;-2.108;2023-11-21T11:17:08;6.35;;;1.55;;
28934;SDS011;16044;52.726;-2.108;2023-11-21T11:19:40;3.63;;;1.33;;
28934;SDS011;16044;52.726;-2.108;2023-11-21T11:22:14;5.10;;;1.48;;
28934;SDS011;16044;52.726;-2.108;2023-11-21T11:28:03;6.63;;;1.90;;
28934;SDS011;16044;52.726;-2.108;2023-11-21T11:30:43;9.30;;;1.83;;
28934;SDS011;16044;52.726;-2.108;2023-11-21T11:33:35;5.55;;;1.30;;
28934;SDS011;16044;52.726;-2.108;2023-11-21T11:36:13;8.27;;;1.50;;
28934;SDS011;16044;52.726;-2.108;2023-11-21T11:38:54;4.95;;;1.20;;
28934;SDS011;16044;52.726;-2.108;2023-11-21T11:41:25;7.60;;;1.80;;
28934;SDS011;16044;52.726;-2.108;2023-11-21T11:43:59;7.18;;;1.33;;
28934;SDS011;16044;52.726;-2.108;2023-11-21T11:46:40;7.00;;;1.10;;
28934;SDS011;16044;52.726;-2.108;2023-11-21T11:49:25;7.95;;;1.45;;
28934;SDS011;16044;52.726;-2.108;2023-11-21T11:55:02;9.68;;;1.73;;
28934;SDS011;16044;52.726;-2.108;2023-11-21T11:57:36;4.95;;;1.42;;
28934;SDS011;16044;52.726;-2.108;2023-11-21T12:00:11;8.30;;;1.63;;
28934;SDS011;16044;52.726;-2.108;2023-11-21T12:02:48;8.52;;;1.73;;
28934;SDS011;16044;52.726;-2.108;2023-11-21T12:05:22;8.18;;;2.13;;
28934;SDS011;16044;52.726;-2.108;2023-11-21T12:07:54;7.07;;;1.85;;
28934;SDS011;16044;52.726;-2.108;2023-11-21T12:10:27;6.93;;;1.60;;
28934;SDS011;16044;52.726;-2.108;2023-11-21T12:13:00;5.93;;;1.40;;
28934;SDS011;16044;52.726;-2.108;2023-11-21T12:15:34;8.38;;;1.50;;
28934;SDS011;16044;52.726;-2.108;2023-11-21T12:18:06;6.68;;;1.65;;
28934;SDS011;16044;52.726;-2.108;2023-11-21T12:20:40;6.20;;;1.75;;
28934;SDS011;16044;52.726;-2.108;2023-11-21T12:23:13;8.98;;;1.27;;
28934;SDS011;16044;52.726;-2.108;2023-11-21T12:25:44;9.23;;;1.40;;
28934;SDS011;16044;52.726;-2.108;2023-11-21T12:28:15;8.35;;;1.60;;
28934;SDS011;16044;52.726;-2.108;2023-11-21T12:30:45;5.60;;;1.38;;
28934;SDS011;16044;52.726;-2.108;2023-11-21T12:33:16;10.25;;;1.67;;
28934;SDS011;16044;52.726;-2.108;2023-11-21T12:35:49;8.02;;;1.45;;
28934;SDS011;16044;52.726;-2.108;2023-11-21T12:38:20;7.97;;;1.40;;
28934;SDS011;16044;52.726;-2.108;2023-11-21T12:40:51;10.55;;;1.38;;
28934;SDS011;16044;52.726;-2.108;2023-11-21T12:43:21;8.65;;;1.40;;
28934;SDS011;16044;52.726;-2.108;2023-11-21T12:45:58;7.53;;;1.60;;
28934;SDS011;16044;52.726;-2.108;2023-11-21T12:48:36;9.02;;;1.55;;
28934;SDS011;16044;52.726;-2.108;2023-11-21T12:51:12;7.28;;;1.30;;
28934;SDS011;16044;52.726;-2.108;2023-11-21T12:53:45;12.55;;;1.50;;
28934;SDS011;16044;52.726;-2.108;2023-11-21T12:56:15;7.05;;;1.45;;
28934;SDS011;16044;52.726;-2.108;2023-11-21T12:58:47;7.05;;;1.30;;
28934;SDS011;16044;52.726;-2.108;2023-11-21T13:01:18;5.90;;;1.30;;
28934;SDS011;16044;52.726;-2.108;2023-11-21T13:03:50;7.43;;;1.05;;
28934;SDS011;16044;52.726;-2.108;2023-11-21T13:06:23;7.90;;;1.52;;
28934;SDS011;16044;52.726;-2.108;2023-11-21T13:08:54;5.00;;;1.50;;
28934;SDS011;16044;52.726;-2.108;2023-11-21T13:11:25;8.73;;;1.50;;
28934;SDS011;16044;52.726;-2.108;2023-11-21T13:13:59;3.80;;;0.90;;
28934;SDS011;16044;52.726;-2.108;2023-11-21T13:16:30;5.25;;;1.00;;
28934;SDS011;16044;52.726;-2.108;2023-11-21T13:19:00;6.75;;;1.10;;
28934;SDS011;16044;52.726;-2.108;2023-11-21T13:21:33;4.95;;;1.13;;
28934;SDS011;16044;52.726;-2.108;2023-11-21T13:26:37;5.07;;;1.10;;
28934;SDS011;16044;52.726;-2.108;2023-11-21T13:29:07;8.40;;;1.20;;
28934;SDS011;16044;52.726;-2.108;2023-11-21T13:31:39;6.63;;;1.10;;
28934;SDS011;16044;52.726;-2.108;2023-11-21T13:34:10;5.45;;;1.30;;
28934;SDS011;16044;52.726;-2.108;2023-11-21T13:36:49;7.93;;;1.67;;
28934;SDS011;16044;52.726;-2.108;2023-11-21T13:39:25;4.75;;;1.10;;
28934;SDS011;16044;52.726;-2.108;2023-11-21T13:41:59;5.47;;;1.23;;
28934;SDS011;16044;52.726;-2.108;2023-11-21T13:44:30;5.72;;;1.13;;
28934;SDS011;16044;52.726;-2.108;2023-11-21T13:47:04;6.40;;;1.15;;
28934;SDS011;16044;52.726;-2.108;2023-11-21T13:49:35;7.85;;;1.10;;
28934;SDS011;16044;52.726;-2.108;2023-11-21T13:52:10;10.25;;;1.75;;
28934;SDS011;16044;52.726;-2.108;2023-11-21T13:54:43;8.85;;;1.10;;
28934;SDS011;16044;52.726;-2.108;2023-11-21T13:57:14;9.75;;;2.22;;
28934;SDS011;16044;52.726;-2.108;2023-11-21T13:59:44;4.70;;;1.00;;
28934;SDS011;16044;52.726;-2.108;2023-11-21T14:02:15;7.72;;;1.38;;
28934;SDS011;16044;52.726;-2.108;2023-11-21T14:04:47;10.23;;;1.27;;
28934;SDS011;16044;52.726;-2.108;2023-11-21T14:07:29;6.95;;;1.00;;
28934;SDS011;16044;52.726;-2.108;2023-11-21T14:10:03;6.68;;;1.17;;
28934;SDS011;16044;52.726;-2.108;2023-11-21T14:12:41;5.07;;;1.00;;
28934;SDS011;16044;52.726;-2.108;2023-11-21T14:15:12;7.85;;;1.10;;
28934;SDS011;16044;52.726;-2.108;2023-11-21T14:17:45;5.97;;;1.30;;
28934;SDS011;16044;52.726;-2.108;2023-11-21T14:20:16;6.28;;;1.20;;
28934;SDS011;16044;52.726;-2.108;2023-11-21T14:22:50;11.57;;;1.27;;
28934;SDS011;16044;52.726;-2.108;2023-11-21T14:25:21;7.93;;;1.08;;
28934;SDS011;16044;52.726;-2.108;2023-11-21T14:27:51;6.43;;;1.30;;
28934;SDS011;16044;52.726;-2.108;2023-11-21T14:30:23;9.02;;;2.13;;
28934;SDS011;16044;52.726;-2.108;2023-11-21T14:32:55;5.60;;;1.50;;
28934;SDS011;16044;52.726;-2.108;2023-11-21T14:35:26;5.40;;;1.20;;
28934;SDS011;16044;52.726;-2.108;2023-11-21T14:38:02;6.70;;;1.27;;
28934;SDS011;16044;52.726;-2.108;2023-11-21T14:40:33;6.50;;;1.60;;
28934;SDS011;16044;52.726;-2.108;2023-11-21T14:43:03;6.38;;;1.10;;
28934;SDS011;16044;52.726;-2.108;2023-11-21T14:45:34;9.70;;;1.40;;
28934;SDS011;16044;52.726;-2.108;2023-11-21T14:48:05;4.30;;;1.20;;
28934;SDS011;16044;52.726;-2.108;2023-11-21T14:50:43;4.70;;;1.00;;
28934;SDS011;16044;52.726;-2.108;2023-11-21T14:53:28;4.18;;;0.95;;
28934;SDS011;16044;52.726;-2.108;2023-11-21T14:56:10;7.50;;;1.05;;
28934;SDS011;16044;52.726;-2.108;2023-11-21T14:58:38;3.53;;;0.90;;
28934;SDS011;16044;52.726;-2.108;2023-11-21T15:01:08;3.83;;;0.90;;
28934;SDS011;16044;52.726;-2.108;2023-11-21T15:03:37;5.03;;;1.02;;
28934;SDS011;16044;52.726;-2.108;2023-11-21T15:06:17;4.65;;;1.20;;
28934;SDS011;16044;52.726;-2.108;2023-11-21T15:08:56;5.80;;;1.50;;
28934;SDS011;16044;52.726;-2.108;2023-11-21T15:11:39;4.47;;;1.90;;
28934;SDS011;16044;52.726;-2.108;2023-11-21T15:14:10;6.03;;;2.03;;
28934;SDS011;16044;52.726;-2.108;2023-11-21T15:16:42;8.00;;;2.97;;